Elizabeth, CO

4:54 PM MDT on August 28, 2015 (GMT -0600)
Bonnie Ridge | | Change Station
CLOSE
Current Station
Personal Weather Station
Location: Elizabeth, CO
Elevation: 6627 ft
Nearby Weather Stations

Elev 6627 ft 39.38 °N, 104.58 °W | Updated 7 seconds ago

Partly Cloudy
Partly Cloudy
76.1 °F
Feels Like 76 °F
N
0.2
Wind Variable Wind from West
Gusts 2.5 mph

Today
High -- | Low -- °F
--% Chance of Precip.
Yesterday
High -- | Low -- °F
Precip. -- in
6:22 AM 7:35 PM
Waxing Gibbous, 99% visible
Pressure 30.32 in
Visibility 10.0 miles
Clouds Clear
Heat Index 76 °F
Dew Point 22 °F
Humidity 13%
Rainfall 0.00 in
Snow Depth Not available.
UV 4 out of 12
Pollen 10.10 out of 12
Air Quality Not available.
Flu Activity Not available.
METAR KMNH 282234Z AUTO 02011KT 10SM CLR 24/04 A3032 RMK AO2
Pressure 30.32 in
Visibility 10.0 miles
Clouds Clear
Heat Index 76 °F
Dew Point 22 °F
Humidity 13%
Rainfall 0.00 in
Snow Depth Not available.
UV 4 out of 12
Pollen 10.10 out of 12
Air Quality Not available.
Flu Activity Not available.
METAR KMNH 282234Z AUTO 02011KT 10SM CLR 24/04 A3032 RMK AO2

10-Day Weather Forecast

×

Almanac

Astronomy

Aug. 28, 2015 Rise Set
Actual Time
Civil Twilight
Nautical Twilight
Astronomical Twilight
Moon
Length of Visible Light
Length of Day
Tomorrow will be .
, % of the Moon is Illuminated

Today's Extremes

State Highs State Lows

Community

WunderPhotos

Upload Photos

1,850,516 photos uploaded!

WunderBlogs® & News

Nearby

Air Quality

  Air Quality AQ Index Pollutant
Not available.

Snow Depth

Station Depth Elevation

Earthquake Activity

City Distance Mag. Time & Date
Minimum magnitude displayed is 2.5.

Coastal Water Temperatures

Place Temperature

Stations

Nearby Weather Stations

Station Location Temp. Windchill Dew Point Humidity Wind Precip. Elev Updated Type